AIRPORT MAP

 RUNWAY INFORMATION

Runway 09 Runway length 6000 ft Runway width 150 ft
Runway elevation 10 ft Runway displaced threshold 302 ft Runway heading 88
Runway 27 Runway length 6000 ft Runway width 150 ft
Runway elevation 11 ft Runway displaced threshold 368 ft Runway heading 268

 AIRPORT FREQUENCIES

Type A/D Name APP Frequency 122.8 MHZ
Type OPS Name GIB TALKDO Frequency 130.4 MHZ
Type TWR Name TWR Frequency 131.2 MHZ

 AIRPORT NEAR NAVIGATION AIDS

Type TACAN Name Gibraltar Frequency 113600 KHZ

 METAR AND TAF INFORMATION

METAR FOR LXGB
ADDS - METARS form results

(1809 UTC 22 February 2020)
Data provider http://aviationweather.gov/metar/data/
 
METAR text: LXGB 221750Z AUTO 10021KT 9999 // FEW017/// 16/12 Q1029
Conditions at: LXGB (GIBRALTAR (CIV/M, GI) observed 1750 UTC 22 February 2020
Temperature: 16.0°C (61°F)
Dewpoint: 12.0°C (54°F) [RH = 77%]
Pressure (altimeter): 30.38 inches Hg (1029.0 mb)
Winds: from the E (100 degrees) at 24 MPH (21 knots; 10.8 m/s)
Visibility: 6 or more miles (10+ km)
Ceiling: at least 12,000 feet AGL
Clouds: few clouds at 1700 feet AGL
Weather: no significant weather observed at this time

METAR text: LXGB 221720Z 09016KT 9999 FEW017 16/12 Q1029 NOSIG RMK BLU BLU
Conditions at: LXGB (GIBRALTAR (CIV/M, GI) observed 1720 UTC 22 February 2020
Temperature: 16.0°C (61°F)
Dewpoint: 12.0°C (54°F) [RH = 77%]
Pressure (altimeter): 30.38 inches Hg (1029.0 mb)
Winds: from the E (90 degrees) at 18 MPH (16 knots; 8.2 m/s)
Visibility: 6 or more miles (10+ km)
Ceiling: at least 12,000 feet AGL
Clouds: few clouds at 1700 feet AGL
Weather: no significant weather observed at this time

Forecast for: LXGB (GIBRALTAR (CIV/M, GI)
Text: TAF LXGB 221645Z 2218/2223 09018G28KT 9999 FEW015 520002
Forecast period: 1800 to 2300 UTC 22 February 2020
Forecast type: FROM: standard forecast or significant change
Winds: from the E (90 degrees) at 21 MPH (18 knots; 9.3 m/s)
gusting to 32 MPH (28 knots; 14.4 m/s)
Visibility: 6 or more miles 10+ km)
Ceiling: at least 12,000 feet AGL
Clouds: few clouds at 1500 feet AGL
Weather: no significant weather forecast for this period
Text: PROB30
Forecast period: 1800 to 2300 UTC 22 February 2020
Forecast type: TEMPORARY: The following changes expected for less than half the time period
Visibility: missing
Ceiling: at least 12,000 feet AGL
Clouds: scattered clouds at 1500 feet AGL
Weather: no significant weather forecast for this period